<<    Oktober 2011    >>
Datum    Temp.       Tempmin      Tempmax    Taup.       Taup.min      Taup.max    Feuchte    Feuchtemin    Feuchtemax    Druck    Druckmin    Druckmax    Regen    Wind    Benmax  
  01.10.2011  18,1    12,1    07:35    26,7    16:25  10,1    7,6    18:24    12,7    11:28  63,1    32    15:35    85    08:34  1025,0    1023    17:04    1027    11:49  0,0  0,5  9,4  
  02.10.2011  17,1    11,4    07:12    25,1    15:53  11,8    10,3    06:37    14,1    12:13  73,9    42    15:48    95    07:59  1024,0    1021    23:19    1026    00:00  0,0  0,5  10,1  
  03.10.2011  17,3    11,4    06:37    25,4    15:44  11,2    7,8    16:38    15,3    10:31  72,1    33    16:23    98    07:21  1021,0    1018    17:04    1023    01:04  0,0  0,7  10,1  
  04.10.2011  16,7    13,2    07:37    19,5    13:05  11,9    9,4    04:27    14,9    16:41  73,1    67    00:20    81    20:10  1019,7    1019    03:19    1021    17:18  0,0  1,2  15,5  
  05.10.2011  18,0    16,2    07:14    20,1    13:37  11,8    10,3    17:14    13,8    13:14  68,0    55    14:00    82    07:33  1019,2    1017    17:03    1021    02:48  0,0  1,9  20,2  
  06.10.2011  14,9    9,9    23:59    19,1    11:38  9,6    3,0    23:18    14,1    13:38  70,9    59    18:03    96    14:25  1010,3    1006    13:18    1018    00:00  6,7  3,2  19,4  
  07.10.2011  10,6    7,9    07:42    13,7    14:14  6,4    3,1    00:10    9,7    13:15  76,2    55    17:12    90    21:34  1011,8    1009    02:03    1015    21:18  2,7  4,9  22,3  
  08.10.2011  10,0    7,7    21:45    13,7    14:56  7,0    4,6    15:05    8,8    00:18  82,6    56    15:05    95    22:56  1016,4    1014    00:33    1019    23:59  3,9  4,1  20,5  
  09.10.2011  9,9    4,1    07:28    15,3    15:35  7,4    3,8    07:28    11,8    23:56  86,5    48    16:03    98    23:59  1020,1    1017    23:17    1023    09:02  3,7  1,9  15,1  
  10.10.2011  17,3    12,1    00:00    21,0    16:05  13,4    11,0    16:32    16,1    08:39  79,7    54    16:06    98    00:00  1015,9    1013    17:32    1018    22:47  0,9  5,3  27,4  
  11.10.2011  16,3    15,4    08:49    17,8    12:35  12,2    10,7    06:50    13,8    18:06  76,5    68    12:45    88    18:06  1016,7    1015    05:17    1018    00:00  0,0  5,7  23,4  
  12.10.2011  13,8    11,2    23:46    15,9    01:02  12,5    10,9    23:46    14,1    09:17  91,8    81    00:00    98    16:02  1017,8    1016    05:16    1021    23:31  14,4  2,8  20,2  
  13.10.2011  11,0    6,0    23:56    15,7    15:06  6,4    1,6    16:38    10,9    00:00  76,7    41    15:18    98    00:00  1027,2    1021    00:00    1032    21:46  0,0  1,0  11,5  
  14.10.2011  8,4    2,5    07:38    15,9    15:44  2,2    -0,6    17:31    7,6    11:02  69,0    34    16:03    97    09:14  1032,1    1030    17:46    1034    09:31  0,0  0,7  12,2  
  15.10.2011  8,9    4,5    07:45    14,7    15:32  0,1    -2,0    18:20    1,6    01:53  56,2    35    15:32    76    07:50  1029,8    1026    16:59    1032    00:00  0,0  2,0  16,9  
  16.10.2011  8,7    4,3    06:05    15,0    16:31  1,2    -0,5    05:58    3,4    20:46  60,5    42    16:16    79    23:59  1025,2    1023    15:29    1027    00:00  0,0  1,5  19,8  
  17.10.2011  10,1    4,1    07:59    16,8    14:53  5,5    2,6    07:59    8,3    11:39  74,3    51    15:02    94    09:03  1021,6    1017    22:58    1024    00:00  0,0  0,9  11,9  
  18.10.2011  9,5    7,3    21:50    14,8    11:00  7,0    5,1    21:10    10,0    09:36  84,4    63    11:18    91    07:38  1012,0    1008    09:43    1018    00:00  0,9  1,9  24,8  
  19.10.2011  9,4    5,4    23:59    13,9    13:33  4,2    -0,2    17:50    6,7    09:53  71,6    45    15:53    87    00:00  1015,9    1012    00:43    1022    22:13  0,0  2,1  20,2  
  20.10.2011  6,7    2,7    23:59    10,6    14:05  3,0    0,9    23:58    5,4    11:10  78,1    56    16:41    93    09:03  1025,1    1021    02:58    1028    21:28  0,0  1,3  12,2  
  21.10.2011  5,1    0,1    06:02    11,8    15:35  1,0    -0,9    06:02    5,0    11:40  77,4    47    15:48    98    10:32  1028,6    1026    16:42    1030    04:43  0,0  0,8  10,1  
  22.10.2011  6,6    2,2    08:04    12,6    16:14  0,3    -2,2    17:31    2,1    01:12  66,9    37    16:34    89    06:29  1023,5    1019    16:27    1029    00:12  0,0  2,7  19,4  
  23.10.2011  8,0    4,1    08:23    13,8    14:41  0,9    -0,4    01:46    2,6    14:18  61,8    45    14:49    75    06:50  1018,2    1015    23:59    1021    06:12  0,0  2,6  19,1  
  24.10.2011  8,6    4,7    06:54    12,1    16:08  1,6    0,9    05:38    2,8    11:28  62,5    47    16:04    81    08:46  1009,7    1005    18:42    1015    00:00  0,0  3,9  23,0  
  25.10.2011  11,4    10,3    08:19    13,0    16:52  2,4    1,0    00:04    3,5    23:25  53,7    48    01:04    60    11:25  1005,2    1003    15:11    1007    00:12  0,0  3,0  19,8  
  26.10.2011  11,1    7,5    23:56    15,5    14:23  4,2    1,7    18:33    6,5    06:21  63,4    44    14:28    81    06:21  1012,0    1005    00:11    1017    21:11  0,0  1,7  14,0  
  27.10.2011  10,2    6,5    01:36    14,7    14:41  5,7    2,8    01:36    7,4    17:45  74,2    59    14:03    85    07:47  1015,7    1014    14:56    1018    22:26  0,0  2,2  15,5  
  28.10.2011  12,6    8,7    08:08    18,4    16:18  8,4    6,8    01:17    10,5    23:56  76,8    55    15:49    90    06:06  1022,0    1018    00:00    1026    22:41  0,0  0,4  13,7  
  29.10.2011  14,0    12,0    02:07    17,7    16:33  9,5    7,9    18:05    10,8    03:51  75,1    56    16:35    90    03:39  1023,4    1021    15:40    1026    00:00  0,0  1,0  13,7  
  30.10.2011  14,0    11,4    23:14    17,9    14:01  11,9    9,4    00:00    14,2    11:53  87,3    71    15:30    96    23:59  1021,4    1020    04:10    1023    00:55  0,0  0,3  7,6  
  31.10.2011  11,6    6,1    07:11    17,1    15:22  10,0    5,8    07:11    13,8    11:52  90,1    72    15:25    98    05:09  1018,8    1015    16:55    1022    00:00  0,0  0,2  13,0  
 
  Gesamt  11,8  0,1            26,7            6,8  -2,2            16,1            73,4  32            98            1019,5  1003            1034            33,1  2,0  27,4  
 
  Mittelwert  11,8  7,8            16,6            6,8  4,3            9,4            73,4  51,5            89,1            1019,5  1016,4            1022,6            1,1  2,0  16,5  
  Minimum  5,1  0,1            10,6            0,1  -2,2            1,6            53,7  32,0            60,0            1005,2  1003,0            1007,0            0,0  0,2  7,6  
  Maximum  18,1  16,2            26,7            13,4  11,0            16,1            91,8  81,0            98,0            1032,1  1030,0            1034,0            14,4  5,7  27,4  

  Heie Tage    Tmax >=30C     0  
  Sommertage    Tmax >=25C     3  
  Warme Tage    Tmax >=20C     5  
  Kalte Tage    Tmax  <10C     0  
  Frosttage    Tmin  <0C     0  
  Eistage    Tmax  <0C     0  
  Regentage > 0 mm    7  
  Regentage > 2 mm    5  
  Regentage > 10 mm    1  
  Regentage > 20 mm    0